createdAt,value
2017-10-15T01:36:55.824Z,1026.11
2017-10-15T01:36:56.394Z,1026.14
2017-10-15T01:36:56.996Z,1026.15
2017-10-15T01:36:57.596Z,1026.15
2017-10-15T01:36:58.195Z,1026.13
2017-10-15T01:36:58.795Z,1026.13
2017-10-15T01:36:59.398Z,1026.16
2017-10-15T01:37:00.004Z,1026.16
2017-10-15T01:37:53.473Z,1026.13
2017-10-15T01:37:54.050Z,1026.14
2017-10-15T01:37:54.651Z,1026.11
2017-10-15T01:37:55.249Z,1026.11
2017-10-15T01:37:55.849Z,1026.14
2017-10-15T01:37:56.447Z,1026.12
2017-10-15T01:37:57.052Z,1026.13
2017-10-15T01:37:57.646Z,1026.13
2017-10-15T01:38:51.126Z,1026.12
2017-10-15T01:38:51.700Z,1026.12
2017-10-15T01:38:52.300Z,1026.13
2017-10-15T01:38:52.900Z,1026.12
2017-10-15T01:38:53.499Z,1026.12
2017-10-15T01:38:54.099Z,1026.11
2017-10-15T01:38:54.699Z,1026.12
2017-10-15T01:38:55.303Z,1026.12
2017-10-15T01:39:48.777Z,1026.11
2017-10-15T01:39:49.352Z,1026.12
2017-10-15T01:39:49.951Z,1026.11
2017-10-15T01:39:50.553Z,1026.11
2017-10-15T01:39:51.151Z,1026.11
2017-10-15T01:39:51.752Z,1026.11
2017-10-15T01:39:52.352Z,1026.12
2017-10-15T01:39:52.954Z,1026.13
2017-10-15T01:40:47.460Z,1026.11
2017-10-15T01:40:48.029Z,1026.09
2017-10-15T01:40:48.628Z,1026.11
2017-10-15T01:40:49.229Z,1026.11
2017-10-15T01:40:49.828Z,1026.13
2017-10-15T01:40:50.428Z,1026.09
2017-10-15T01:40:51.028Z,1026.10
2017-10-15T01:40:51.628Z,1026.10
2017-10-15T01:41:46.130Z,1026.11
2017-10-15T01:41:46.705Z,1026.11
2017-10-15T01:41:47.303Z,1026.11
2017-10-15T01:41:47.904Z,1026.11
2017-10-15T01:41:48.503Z,1026.10
2017-10-15T01:41:49.103Z,1026.13
2017-10-15T01:41:49.703Z,1026.12
2017-10-15T01:41:50.309Z,1026.10
2017-10-15T01:42:43.782Z,1026.07
2017-10-15T01:42:44.357Z,1026.06
2017-10-15T01:42:44.957Z,1026.07
2017-10-15T01:42:45.558Z,1026.06
2017-10-15T01:42:46.157Z,1026.09
2017-10-15T01:42:46.755Z,1026.08
2017-10-15T01:42:47.356Z,1026.09
2017-10-15T01:42:47.959Z,1026.07
2017-10-15T01:43:41.434Z,1026.07
2017-10-15T01:43:42.008Z,1026.05
2017-10-15T01:43:42.621Z,1026.06
2017-10-15T01:43:43.208Z,1026.05
2017-10-15T01:43:43.810Z,1026.07
2017-10-15T01:43:44.412Z,1026.06
2017-10-15T01:43:45.010Z,1026.04
2017-10-15T01:43:45.607Z,1026.08
2017-10-15T01:44:40.110Z,1026.04
2017-10-15T01:44:40.685Z,1026.08
2017-10-15T01:44:41.284Z,1026.07
2017-10-15T01:44:41.887Z,1026.03
2017-10-15T01:44:42.484Z,1026.04
2017-10-15T01:44:43.083Z,1026.06
2017-10-15T01:44:43.686Z,1026.05
2017-10-15T01:44:44.283Z,1026.06
2017-10-15T01:45:38.789Z,1026.05
2017-10-15T01:45:39.360Z,1026.04
2017-10-15T01:45:39.960Z,1026.02
2017-10-15T01:45:40.559Z,1026.03
2017-10-15T01:45:41.159Z,1026.00
2017-10-15T01:45:41.759Z,1026.06
2017-10-15T01:45:42.361Z,1026.02
2017-10-15T01:45:42.959Z,1026.05
2017-10-15T01:46:36.441Z,1026.02
2017-10-15T01:46:37.013Z,1026.03
2017-10-15T01:46:37.613Z,1026.07
2017-10-15T01:46:38.212Z,1026.05
2017-10-15T01:46:38.813Z,1026.05
2017-10-15T01:46:39.412Z,1026.07
2017-10-15T01:46:40.012Z,1026.05
2017-10-15T01:46:40.610Z,1026.05
2017-10-15T01:47:35.114Z,1026.04
2017-10-15T01:47:35.687Z,1026.04
2017-10-15T01:47:36.287Z,1026.03
2017-10-15T01:47:36.887Z,1026.05
2017-10-15T01:47:37.486Z,1026.05
2017-10-15T01:47:38.085Z,1026.05
2017-10-15T01:47:38.687Z,1025.98
2017-10-15T01:47:39.286Z,1026.02
2017-10-15T01:48:32.764Z,1026.05
2017-10-15T01:48:33.348Z,1026.03
2017-10-15T01:48:33.940Z,1026.05
2017-10-15T01:48:34.540Z,1026.06
2017-10-15T01:48:35.140Z,1026.03
2017-10-15T01:48:35.739Z,1026.04
2017-10-15T01:48:36.339Z,1026.04
2017-10-15T01:48:36.939Z,1026.03
2017-10-15T01:49:31.441Z,1026.03
2017-10-15T01:49:32.014Z,1026.01
2017-10-15T01:49:32.614Z,1026.00
2017-10-15T01:49:33.217Z,1026.01
2017-10-15T01:49:33.820Z,1026.03
2017-10-15T01:49:34.417Z,1026.00
2017-10-15T01:49:35.015Z,1026.04
2017-10-15T01:49:35.614Z,1026.04
2017-10-15T01:50:30.116Z,1026.03
2017-10-15T01:50:30.691Z,1026.04
2017-10-15T01:50:31.291Z,1026.02
2017-10-15T01:50:31.890Z,1026.03
2017-10-15T01:50:32.490Z,1026.03
2017-10-15T01:50:33.096Z,1026.03
2017-10-15T01:50:33.690Z,1026.01
2017-10-15T01:50:34.289Z,1025.99
2017-10-15T01:51:27.769Z,1026.00
2017-10-15T01:51:28.345Z,1026.02
2017-10-15T01:51:28.944Z,1026.03
2017-10-15T01:51:29.548Z,1026.00
2017-10-15T01:51:30.146Z,1026.00
2017-10-15T01:51:30.744Z,1026.02
2017-10-15T01:51:31.345Z,1025.99
2017-10-15T01:51:31.944Z,1026.01
2017-10-15T01:52:25.425Z,1026.04
2017-10-15T01:52:25.996Z,1026.03
2017-10-15T01:52:26.595Z,1026.05
2017-10-15T01:52:27.196Z,1026.00
2017-10-15T01:52:27.795Z,1026.02
2017-10-15T01:52:28.395Z,1026.00
2017-10-15T01:52:28.994Z,1026.01
2017-10-15T01:52:29.594Z,1026.01
2017-10-15T01:53:23.074Z,1025.97
2017-10-15T01:53:23.648Z,1026.00
2017-10-15T01:53:24.247Z,1025.98
2017-10-15T01:53:24.848Z,1025.99
2017-10-15T01:53:25.448Z,1026.02
2017-10-15T01:53:26.047Z,1025.99
2017-10-15T01:53:26.646Z,1026.00
2017-10-15T01:53:27.247Z,1026.04
2017-10-15T01:54:21.749Z,1026.01
2017-10-15T01:54:22.321Z,1026.00
2017-10-15T01:54:22.922Z,1025.98
2017-10-15T01:54:23.524Z,1025.95
2017-10-15T01:54:24.127Z,1025.99
2017-10-15T01:54:24.735Z,1025.97
2017-10-15T01:54:25.321Z,1026.01
2017-10-15T01:54:25.920Z,1025.97
2017-10-15T01:55:19.399Z,1025.99
2017-10-15T01:55:19.973Z,1026.00
2017-10-15T01:55:20.575Z,1025.98
2017-10-15T01:55:21.176Z,1025.98
2017-10-15T01:55:21.775Z,1025.99
2017-10-15T01:55:22.373Z,1026.00
2017-10-15T01:55:22.974Z,1025.99
2017-10-15T01:55:23.574Z,1025.99
2017-10-15T01:56:18.077Z,1025.98
2017-10-15T01:56:18.649Z,1026.00
2017-10-15T01:56:19.249Z,1025.98
2017-10-15T01:56:19.849Z,1025.99
2017-10-15T01:56:20.450Z,1025.96
2017-10-15T01:56:21.050Z,1025.97
2017-10-15T01:56:21.648Z,1026.00
2017-10-15T01:56:22.248Z,1025.95
2017-10-15T01:57:15.727Z,1025.98
2017-10-15T01:57:16.303Z,1025.98
2017-10-15T01:57:16.908Z,1025.99
2017-10-15T01:57:17.502Z,1026.00
2017-10-15T01:57:18.102Z,1025.95
2017-10-15T01:57:18.702Z,1025.97
2017-10-15T01:57:19.301Z,1025.98
2017-10-15T01:57:19.902Z,1025.96
2017-10-15T01:58:13.384Z,1026.00
2017-10-15T01:58:13.953Z,1025.97
2017-10-15T01:58:14.553Z,1026.02
2017-10-15T01:58:15.153Z,1025.95
2017-10-15T01:58:15.754Z,1026.03
2017-10-15T01:58:16.353Z,1025.99
2017-10-15T01:58:16.952Z,1026.00
2017-10-15T01:58:17.554Z,1026.01
2017-10-15T01:59:12.056Z,1026.00
2017-10-15T01:59:12.628Z,1025.97
2017-10-15T01:59:13.230Z,1025.99
2017-10-15T01:59:13.829Z,1025.99
2017-10-15T01:59:14.434Z,1025.97
2017-10-15T01:59:15.028Z,1025.98
2017-10-15T01:59:15.628Z,1026.00
2017-10-15T01:59:16.227Z,1025.97
2017-10-15T02:00:09.719Z,1025.99
2017-10-15T02:00:10.281Z,1025.98
2017-10-15T02:00:10.880Z,1026.01
2017-10-15T02:00:11.480Z,1026.00
2017-10-15T02:00:12.080Z,1025.97
2017-10-15T02:00:12.680Z,1026.00
2017-10-15T02:00:13.281Z,1026.00
2017-10-15T02:00:13.881Z,1026.00
2017-10-15T02:01:08.393Z,1026.00
2017-10-15T02:01:08.958Z,1025.99
2017-10-15T02:01:09.555Z,1026.00
2017-10-15T02:01:10.155Z,1026.00
2017-10-15T02:01:10.755Z,1025.96
2017-10-15T02:01:11.355Z,1026.02
2017-10-15T02:01:11.955Z,1026.00
2017-10-15T02:01:12.555Z,1026.00
2017-10-15T02:02:06.033Z,1026.02
2017-10-15T02:02:06.607Z,1025.98
2017-10-15T02:02:07.209Z,1025.99
2017-10-15T02:02:07.808Z,1026.00
2017-10-15T02:02:08.408Z,1026.01
2017-10-15T02:02:09.014Z,1026.01
2017-10-15T02:02:09.614Z,1026.02
2017-10-15T02:02:10.208Z,1026.00
2017-10-15T02:03:03.685Z,1025.99
2017-10-15T02:03:04.260Z,1025.99
2017-10-15T02:03:04.859Z,1025.99
2017-10-15T02:03:05.460Z,1025.97
2017-10-15T02:03:06.061Z,1025.96
2017-10-15T02:03:06.660Z,1025.96
2017-10-15T02:03:07.263Z,1025.99
2017-10-15T02:03:07.859Z,1025.98
2017-10-15T02:04:01.336Z,1025.97
2017-10-15T02:04:01.912Z,1026.00
2017-10-15T02:04:02.511Z,1025.96
2017-10-15T02:04:03.111Z,1025.94
2017-10-15T02:04:03.712Z,1025.94
2017-10-15T02:04:04.312Z,1025.96
2017-10-15T02:04:04.912Z,1025.96
2017-10-15T02:04:05.512Z,1025.99
2017-10-15T02:05:00.014Z,1025.95
2017-10-15T02:05:00.586Z,1025.95
2017-10-15T02:05:01.188Z,1025.96
2017-10-15T02:05:01.787Z,1025.97
2017-10-15T02:05:02.389Z,1025.96
2017-10-15T02:05:02.986Z,1025.95
2017-10-15T02:05:03.591Z,1025.95
2017-10-15T02:05:04.185Z,1025.92
2017-10-15T02:05:57.668Z,1025.91
2017-10-15T02:05:58.240Z,1025.92
2017-10-15T02:05:58.839Z,1025.92
2017-10-15T02:05:59.440Z,1025.93
2017-10-15T02:06:00.039Z,1025.92
2017-10-15T02:06:00.638Z,1025.92
2017-10-15T02:06:01.242Z,1025.92
2017-10-15T02:06:01.842Z,1025.92
2017-10-15T02:06:56.853Z,1025.94
2017-10-15T02:06:57.426Z,1025.95
2017-10-15T02:06:58.027Z,1025.93
2017-10-15T02:06:58.627Z,1025.90
2017-10-15T02:06:59.225Z,1025.94
2017-10-15T02:06:59.825Z,1025.92
2017-10-15T02:07:00.426Z,1025.92
2017-10-15T02:07:53.992Z,1025.92
2017-10-15T02:07:54.568Z,1025.94
2017-10-15T02:07:55.168Z,1025.98
2017-10-15T02:07:55.767Z,1025.96
2017-10-15T02:07:56.366Z,1025.94
2017-10-15T02:07:56.966Z,1025.91
2017-10-15T02:07:57.567Z,1025.89
2017-10-15T02:07:58.166Z,1025.94
2017-10-15T02:08:52.667Z,1025.94
2017-10-15T02:08:53.241Z,1025.96
2017-10-15T02:08:53.842Z,1025.95
2017-10-15T02:08:54.441Z,1025.92
2017-10-15T02:08:55.041Z,1025.92
2017-10-15T02:08:55.641Z,1025.91
2017-10-15T02:08:56.241Z,1025.92
2017-10-15T02:08:56.840Z,1025.90
2017-10-15T02:09:51.343Z,1025.92
2017-10-15T02:09:51.917Z,1025.96
2017-10-15T02:09:52.516Z,1025.92
2017-10-15T02:09:53.116Z,1025.91
2017-10-15T02:09:53.716Z,1025.92
2017-10-15T02:09:54.316Z,1025.93
2017-10-15T02:09:54.916Z,1025.93
2017-10-15T02:09:55.515Z,1025.93
2017-10-15T02:10:50.024Z,1025.95
2017-10-15T02:10:50.593Z,1025.92
2017-10-15T02:10:51.192Z,1025.94
2017-10-15T02:10:51.792Z,1025.93
2017-10-15T02:10:52.397Z,1025.95
2017-10-15T02:10:52.992Z,1025.94
2017-10-15T02:10:53.592Z,1025.88
2017-10-15T02:10:54.192Z,1025.91
2017-10-15T02:11:50.229Z,1025.93
2017-10-15T02:11:50.806Z,1025.93
2017-10-15T02:11:51.403Z,1025.94
2017-10-15T02:11:52.004Z,1025.94
2017-10-15T02:11:52.603Z,1025.93
2017-10-15T02:11:53.204Z,1025.95
2017-10-15T02:12:47.268Z,1025.95
2017-10-15T02:12:47.843Z,1025.93
2017-10-15T02:12:48.442Z,1025.95
2017-10-15T02:12:49.043Z,1025.93
2017-10-15T02:12:49.642Z,1025.95
2017-10-15T02:12:50.242Z,1025.95
2017-10-15T02:12:50.841Z,1025.98
2017-10-15T02:12:51.444Z,1025.94
2017-10-15T02:13:44.921Z,1025.95
2017-10-15T02:13:45.494Z,1025.94
2017-10-15T02:13:46.092Z,1025.98
2017-10-15T02:13:46.693Z,1025.98
2017-10-15T02:13:47.292Z,1025.98
2017-10-15T02:13:47.894Z,1025.95
2017-10-15T02:13:48.499Z,1025.97
2017-10-15T02:13:49.111Z,1025.96
2017-10-15T02:14:42.570Z,1026.01
2017-10-15T02:14:43.145Z,1025.99
2017-10-15T02:14:43.749Z,1025.96
2017-10-15T02:14:44.356Z,1026.00
2017-10-15T02:14:44.974Z,1026.01
2017-10-15T02:14:45.547Z,1025.97
2017-10-15T02:14:46.145Z,1025.96
2017-10-15T02:14:46.746Z,1025.97
2017-10-15T02:15:40.222Z,1025.99
2017-10-15T02:15:40.797Z,1026.01
2017-10-15T02:15:41.396Z,1025.97
2017-10-15T02:15:41.997Z,1025.98
2017-10-15T02:15:42.597Z,1025.98
2017-10-15T02:15:43.202Z,1025.98
2017-10-15T02:15:43.796Z,1025.99
2017-10-15T02:15:44.395Z,1026.01
2017-10-15T02:16:37.984Z,1026.03
2017-10-15T02:16:38.554Z,1026.01
2017-10-15T02:16:39.156Z,1026.00
2017-10-15T02:16:39.753Z,1026.00
2017-10-15T02:16:40.356Z,1026.00
2017-10-15T02:16:40.950Z,1025.99
2017-10-15T02:16:41.550Z,1025.99
2017-10-15T02:16:42.150Z,1026.00
2017-10-15T02:17:36.652Z,1026.04
2017-10-15T02:17:37.230Z,1026.00
2017-10-15T02:17:37.826Z,1025.98
2017-10-15T02:17:38.425Z,1026.01
2017-10-15T02:17:39.026Z,1026.00
2017-10-15T02:17:39.631Z,1026.00
2017-10-15T02:17:40.228Z,1026.01
2017-10-15T02:17:40.831Z,1025.98
2017-10-15T02:18:39.321Z,1026.01
2017-10-15T02:18:39.899Z,1025.95
2017-10-15T02:18:40.495Z,1026.01
2017-10-15T02:18:41.095Z,1026.02
2017-10-15T02:18:41.698Z,1026.03
2017-10-15T02:18:42.301Z,1025.99
2017-10-15T02:18:42.895Z,1026.05
2017-10-15T02:18:43.498Z,1025.98
2017-10-15T02:18:44.097Z,1025.99
2017-10-15T02:18:44.695Z,1025.99
2017-10-15T02:18:45.301Z,1025.99
2017-10-15T02:18:45.894Z,1026.02
2017-10-15T02:18:46.494Z,1026.02
2017-10-15T02:18:47.092Z,1025.99
2017-10-15T02:18:47.695Z,1025.97
2017-10-15T02:18:48.294Z,1026.00
2017-10-15T02:18:48.893Z,1025.97
2017-10-15T02:51:16.605Z,1026.05
2017-10-15T02:51:17.182Z,1026.01
2017-10-15T02:51:17.786Z,1026.03
2017-10-15T02:51:18.381Z,1026.04
2017-10-15T02:51:18.984Z,1026.05
2017-10-15T02:51:19.580Z,1026.02
2017-10-15T02:51:20.180Z,1026.05
2017-10-15T02:51:20.779Z,1026.03
2017-10-15T02:52:15.281Z,1026.03
2017-10-15T02:52:15.856Z,1026.05
2017-10-15T02:52:16.455Z,1026.05
2017-10-15T02:52:17.054Z,1026.04
2017-10-15T02:52:17.655Z,1026.04
2017-10-15T02:52:18.254Z,1026.00
2017-10-15T02:52:18.854Z,1026.05
2017-10-15T02:52:19.456Z,1026.04
2017-10-15T02:53:12.934Z,1026.04
2017-10-15T02:53:13.507Z,1026.02
2017-10-15T02:53:14.107Z,1026.04
2017-10-15T02:53:14.710Z,1026.01
2017-10-15T02:53:15.309Z,1026.02
2017-10-15T02:53:15.912Z,1026.04
2017-10-15T02:53:16.509Z,1026.06
2017-10-15T02:53:17.122Z,1026.05
2017-10-15T02:54:10.585Z,1026.01
2017-10-15T02:54:11.161Z,1026.02
2017-10-15T02:54:11.764Z,1026.04
2017-10-15T02:54:12.371Z,1026.04
2017-10-15T02:54:12.961Z,1026.02
2017-10-15T02:54:13.561Z,1026.05
2017-10-15T02:54:14.160Z,1026.01
2017-10-15T02:54:14.760Z,1026.04
2017-10-15T02:55:08.237Z,1026.03
2017-10-15T02:55:08.813Z,1026.02
2017-10-15T02:55:09.413Z,1026.01
2017-10-15T02:55:10.013Z,1026.00
2017-10-15T02:55:10.612Z,1026.01
2017-10-15T02:55:11.212Z,1026.02
2017-10-15T02:55:11.817Z,1026.04
2017-10-15T02:55:12.413Z,1026.03
2017-10-15T02:56:05.890Z,1026.04
2017-10-15T02:56:06.466Z,1026.00
2017-10-15T02:56:07.065Z,1026.05
2017-10-15T02:56:07.669Z,1026.02
2017-10-15T02:56:08.266Z,1026.03
2017-10-15T02:56:08.864Z,1026.01
2017-10-15T02:56:09.472Z,1026.02
2017-10-15T02:56:10.065Z,1026.06
2017-10-15T02:57:04.576Z,1026.03
2017-10-15T02:57:05.140Z,1026.00
2017-10-15T02:57:05.741Z,1026.03
2017-10-15T02:57:06.348Z,1026.02
2017-10-15T02:57:06.941Z,1026.05
2017-10-15T02:57:07.539Z,1026.00
2017-10-15T02:57:08.145Z,1025.99
2017-10-15T02:57:08.740Z,1026.05
2017-10-15T02:58:02.219Z,1026.05
2017-10-15T02:58:02.795Z,1026.03
2017-10-15T02:58:03.392Z,1026.02
2017-10-15T02:58:03.994Z,1026.04
2017-10-15T02:58:04.592Z,1026.02
2017-10-15T02:58:05.192Z,1026.04
2017-10-15T02:58:05.793Z,1026.02
2017-10-15T02:58:06.393Z,1026.00
2017-10-15T02:59:01.408Z,1026.06
2017-10-15T02:59:01.983Z,1026.03
2017-10-15T02:59:02.581Z,1026.06
2017-10-15T02:59:03.184Z,1026.04
2017-10-15T02:59:03.786Z,1026.07
2017-10-15T02:59:04.382Z,1026.01
2017-10-15T02:59:04.982Z,1026.06
2017-10-15T02:59:58.547Z,1026.07
2017-10-15T02:59:59.120Z,1026.03
2017-10-15T02:59:59.724Z,1026.06
2017-10-15T03:00:00.321Z,1026.03
2017-10-15T03:00:00.926Z,1026.07
2017-10-15T03:00:01.521Z,1026.04
2017-10-15T03:00:02.120Z,1026.07
2017-10-15T03:00:02.720Z,1026.03
2017-10-15T03:00:56.212Z,1026.05
2017-10-15T03:00:56.789Z,1026.06
2017-10-15T03:00:57.384Z,1026.04
2017-10-15T03:00:57.972Z,1026.03
2017-10-15T03:00:58.572Z,1026.03
2017-10-15T03:00:59.171Z,1026.02
2017-10-15T03:00:59.772Z,1026.02
2017-10-15T03:01:00.379Z,1026.01
2017-10-15T03:01:53.849Z,1026.02
2017-10-15T03:01:54.423Z,1025.99
2017-10-15T03:01:55.044Z,1025.99
2017-10-15T03:01:55.624Z,1026.00
2017-10-15T03:01:56.231Z,1026.00
2017-10-15T03:01:56.828Z,1026.00
2017-10-15T03:01:57.424Z,1026.01
2017-10-15T03:01:58.032Z,1025.99
2017-10-15T03:02:51.501Z,1025.99
2017-10-15T03:02:52.076Z,1026.00
2017-10-15T03:02:52.676Z,1025.96
2017-10-15T03:02:53.276Z,1025.94
2017-10-15T03:02:53.876Z,1025.96
2017-10-15T03:02:54.475Z,1025.93
2017-10-15T03:02:55.077Z,1025.96
2017-10-15T03:02:55.674Z,1025.94
2017-10-15T03:03:50.197Z,1026.00
2017-10-15T03:03:50.753Z,1025.99
2017-10-15T03:03:51.351Z,1025.97
2017-10-15T03:03:51.949Z,1025.97
2017-10-15T03:03:52.571Z,1025.92
2017-10-15T03:03:53.149Z,1025.98
2017-10-15T03:03:53.749Z,1025.97
2017-10-15T03:03:54.349Z,1025.96
2017-10-15T03:04:48.851Z,1025.97
2017-10-15T03:04:49.426Z,1025.93
2017-10-15T03:04:50.026Z,1025.92
2017-10-15T03:04:50.626Z,1025.92
2017-10-15T03:04:51.225Z,1025.95
2017-10-15T03:04:51.825Z,1025.90
2017-10-15T03:04:52.426Z,1025.92
2017-10-15T03:04:53.028Z,1025.90
2017-10-15T03:05:47.551Z,1025.96
2017-10-15T03:05:48.102Z,1025.96
2017-10-15T03:05:48.702Z,1025.94
2017-10-15T03:05:49.314Z,1025.94
2017-10-15T03:05:49.902Z,1025.96
2017-10-15T03:05:50.506Z,1025.93
2017-10-15T03:05:51.117Z,1025.96
2017-10-15T03:05:51.703Z,1025.93
2017-10-15T03:06:45.185Z,1025.93
2017-10-15T03:06:45.755Z,1025.92
2017-10-15T03:06:46.354Z,1025.94
2017-10-15T03:06:46.955Z,1025.93
2017-10-15T03:06:47.556Z,1025.96
2017-10-15T03:06:48.154Z,1025.92
2017-10-15T03:06:48.758Z,1025.92
2017-10-15T03:06:49.354Z,1025.94
2017-10-15T03:07:43.925Z,1025.94
2017-10-15T03:07:44.429Z,1025.95
2017-10-15T03:07:45.028Z,1025.92
2017-10-15T03:07:45.633Z,1025.95
2017-10-15T03:07:46.231Z,1025.93
2017-10-15T03:07:46.828Z,1025.93
2017-10-15T03:07:47.428Z,1025.93
2017-10-15T03:07:48.031Z,1025.93
2017-10-15T03:08:41.507Z,1025.94
2017-10-15T03:08:42.082Z,1025.91
2017-10-15T03:08:42.682Z,1025.92
2017-10-15T03:08:43.282Z,1025.90
2017-10-15T03:08:43.888Z,1025.89
2017-10-15T03:08:44.483Z,1025.92
2017-10-15T03:08:45.086Z,1025.91
2017-10-15T03:09:58.618Z,1025.93
2017-10-15T03:09:59.190Z,1025.95
2017-10-15T03:09:59.790Z,1025.97
2017-10-15T03:10:00.390Z,1025.94
2017-10-15T03:10:00.989Z,1025.97
2017-10-15T03:10:01.589Z,1025.97
2017-10-15T03:10:02.188Z,1025.96
2017-10-15T03:10:02.788Z,1025.95
2017-10-15T03:10:56.268Z,1025.97
2017-10-15T03:10:56.842Z,1025.94
2017-10-15T03:10:57.441Z,1025.96
2017-10-15T03:10:58.042Z,1025.94
2017-10-15T03:10:58.641Z,1025.95
2017-10-15T03:10:59.241Z,1025.91
2017-10-15T03:10:59.850Z,1025.92
2017-10-15T03:11:00.446Z,1025.94
2017-10-15T03:11:53.924Z,1025.96
2017-10-15T03:11:54.496Z,1025.95
2017-10-15T03:11:55.099Z,1025.92
2017-10-15T03:11:55.696Z,1025.98
2017-10-15T03:11:56.295Z,1025.97
2017-10-15T03:11:56.893Z,1025.96
2017-10-15T03:11:57.494Z,1025.96
2017-10-15T03:11:58.093Z,1025.96
2017-10-15T03:12:51.569Z,1025.94
2017-10-15T03:12:52.145Z,1025.97
2017-10-15T03:12:52.745Z,1025.97
2017-10-15T03:12:53.345Z,1025.95
2017-10-15T03:12:53.944Z,1025.98
2017-10-15T03:12:54.544Z,1025.95
2017-10-15T03:12:55.145Z,1025.96
2017-10-15T03:12:55.749Z,1025.97
2017-10-15T03:13:49.740Z,1025.96
2017-10-15T03:13:51.283Z,1025.99
2017-10-15T03:13:51.790Z,1025.95
2017-10-15T03:13:52.387Z,1025.98
2017-10-15T03:13:52.992Z,1025.97
2017-10-15T03:13:53.583Z,1025.97
2017-10-15T03:14:47.095Z,1025.95
2017-10-15T03:14:47.653Z,1025.94
2017-10-15T03:14:48.253Z,1025.95
2017-10-15T03:14:48.853Z,1025.98
2017-10-15T03:14:49.453Z,1025.96
2017-10-15T03:14:50.052Z,1025.92
2017-10-15T03:14:50.652Z,1025.96
2017-10-15T03:14:51.257Z,1025.96
2017-10-15T03:15:44.732Z,1025.94
2017-10-15T03:15:45.312Z,1025.91
2017-10-15T03:15:45.904Z,1025.94
2017-10-15T03:15:46.517Z,1025.91
2017-10-15T03:15:47.103Z,1025.93
2017-10-15T03:15:47.703Z,1025.95
2017-10-15T03:15:48.304Z,1025.95
2017-10-15T03:15:48.904Z,1025.96
2017-10-15T03:16:43.410Z,1025.91
2017-10-15T03:16:43.980Z,1025.93
2017-10-15T03:16:44.586Z,1025.89
2017-10-15T03:16:45.180Z,1025.91
2017-10-15T03:16:45.779Z,1025.97
2017-10-15T03:16:46.395Z,1025.96
2017-10-15T03:16:46.978Z,1025.95
2017-10-15T03:16:47.579Z,1025.94
2017-10-15T03:17:42.592Z,1025.90
2017-10-15T03:17:43.167Z,1025.97
2017-10-15T03:17:43.769Z,1025.92
2017-10-15T03:17:44.366Z,1025.94
2017-10-15T03:17:44.966Z,1025.95
2017-10-15T03:17:45.567Z,1025.94
2017-10-15T03:17:46.168Z,1025.91
2017-10-15T03:18:40.653Z,1025.99
2017-10-15T03:18:41.228Z,1025.96
2017-10-15T03:18:41.827Z,1025.92
2017-10-15T03:18:42.427Z,1025.92
2017-10-15T03:18:43.027Z,1025.96
2017-10-15T03:18:43.628Z,1025.93
2017-10-15T03:18:44.226Z,1025.95
2017-10-15T03:18:44.828Z,1025.96
2017-10-15T03:19:39.329Z,1025.94
2017-10-15T03:19:39.907Z,1025.90
2017-10-15T03:19:40.504Z,1025.91
2017-10-15T03:19:41.104Z,1025.93
2017-10-15T03:19:41.704Z,1025.95
2017-10-15T03:19:42.304Z,1025.94
2017-10-15T03:19:42.917Z,1025.98
2017-10-15T03:19:43.506Z,1025.94
2017-10-15T03:20:38.022Z,1025.93
2017-10-15T03:20:38.582Z,1025.95
2017-10-15T03:20:39.191Z,1025.93
2017-10-15T03:20:39.787Z,1025.94
2017-10-15T03:20:40.378Z,1025.95
2017-10-15T03:20:40.980Z,1025.97
2017-10-15T03:20:41.580Z,1025.95
2017-10-15T03:20:42.183Z,1025.93
2017-10-15T03:21:35.663Z,1025.91
2017-10-15T03:21:36.234Z,1025.95
2017-10-15T03:21:36.833Z,1025.99
2017-10-15T03:21:37.436Z,1025.93
2017-10-15T03:21:38.032Z,1025.92
2017-10-15T03:21:38.632Z,1025.95
2017-10-15T03:21:39.231Z,1025.96
2017-10-15T03:21:39.831Z,1025.94
2017-10-15T03:22:34.343Z,1025.95
2017-10-15T03:22:34.908Z,1025.95
2017-10-15T03:22:35.516Z,1025.94
2017-10-15T03:22:36.108Z,1025.94
2017-10-15T03:22:36.707Z,1025.89
2017-10-15T03:22:37.320Z,1025.90
2017-10-15T03:22:37.906Z,1025.90
2017-10-15T03:22:38.506Z,1025.95
2017-10-15T03:23:33.011Z,1025.90
2017-10-15T03:23:33.586Z,1025.90
2017-10-15T03:23:34.186Z,1025.91
2017-10-15T03:23:34.785Z,1025.92
2017-10-15T03:23:35.400Z,1025.92
2017-10-15T03:23:35.982Z,1025.88
2017-10-15T03:23:36.581Z,1025.90
2017-10-15T03:23:37.180Z,1025.89
2017-10-15T03:24:31.684Z,1025.91
2017-10-15T03:24:32.258Z,1025.92
2017-10-15T03:24:32.859Z,1025.88
2017-10-15T03:24:33.458Z,1025.91
2017-10-15T03:24:34.057Z,1025.93
2017-10-15T03:24:34.657Z,1025.92
2017-10-15T03:24:35.258Z,1025.90
2017-10-15T03:24:35.860Z,1025.92
2017-10-15T03:25:30.361Z,1025.87
2017-10-15T03:25:30.937Z,1025.86
2017-10-15T03:25:31.534Z,1025.88
2017-10-15T03:25:32.134Z,1025.84
2017-10-15T03:25:32.734Z,1025.89
2017-10-15T03:25:33.337Z,1025.89
2017-10-15T03:25:33.934Z,1025.90
2017-10-15T03:25:34.536Z,1025.88
2017-10-15T03:26:29.040Z,1025.89
2017-10-15T03:26:29.611Z,1025.91
2017-10-15T03:26:30.215Z,1025.91
2017-10-15T03:26:30.812Z,1025.88
2017-10-15T03:26:31.411Z,1025.88
2017-10-15T03:26:32.011Z,1025.88
2017-10-15T03:26:32.611Z,1025.89
2017-10-15T03:26:33.210Z,1025.89
2017-10-15T03:27:27.712Z,1025.88
2017-10-15T03:27:28.289Z,1025.87
2017-10-15T03:27:28.886Z,1025.90
2017-10-15T03:27:29.485Z,1025.90
2017-10-15T03:27:30.086Z,1025.88
2017-10-15T03:27:30.685Z,1025.89
2017-10-15T03:27:31.286Z,1025.87
2017-10-15T03:27:31.886Z,1025.88
2017-10-15T03:28:25.364Z,1025.91
2017-10-15T03:28:25.938Z,1025.88
2017-10-15T03:28:26.538Z,1025.88
2017-10-15T03:28:27.143Z,1025.89
2017-10-15T03:28:27.738Z,1025.85
2017-10-15T03:28:28.340Z,1025.90
2017-10-15T03:28:28.940Z,1025.88
2017-10-15T03:28:29.538Z,1025.87
2017-10-15T03:29:23.533Z,1025.91
2017-10-15T03:29:24.108Z,1025.92
2017-10-15T03:29:24.718Z,1025.89
2017-10-15T03:29:25.301Z,1025.94
2017-10-15T03:29:25.907Z,1025.91
2017-10-15T03:29:26.501Z,1025.90
2017-10-15T03:29:27.100Z,1025.91
2017-10-15T03:30:20.668Z,1025.90
2017-10-15T03:30:21.242Z,1025.92
2017-10-15T03:30:21.842Z,1025.90
2017-10-15T03:30:22.444Z,1025.90
2017-10-15T03:30:23.062Z,1025.91
2017-10-15T03:30:23.645Z,1025.92
2017-10-15T03:30:24.250Z,1025.93
2017-10-15T03:30:24.842Z,1025.91
2017-10-15T03:31:18.318Z,1025.91
2017-10-15T03:31:18.892Z,1025.92
2017-10-15T03:31:19.497Z,1025.93
2017-10-15T03:31:20.093Z,1025.88
2017-10-15T03:31:20.692Z,1025.88
2017-10-15T03:31:21.295Z,1025.91
2017-10-15T03:31:21.893Z,1025.91
2017-10-15T03:31:22.492Z,1025.92
2017-10-15T03:32:15.969Z,1025.91
2017-10-15T03:32:16.548Z,1025.93
2017-10-15T03:32:17.149Z,1025.93
2017-10-15T03:32:17.746Z,1025.89
2017-10-15T03:32:18.352Z,1025.92
2017-10-15T03:32:18.948Z,1025.92
2017-10-15T03:32:19.543Z,1025.92
2017-10-15T03:32:20.144Z,1025.92
2017-10-15T03:33:13.622Z,1025.86
2017-10-15T03:33:14.195Z,1025.92
2017-10-15T03:33:14.796Z,1025.91
2017-10-15T03:33:15.396Z,1025.93
2017-10-15T03:33:16.002Z,1025.91
2017-10-15T03:33:16.595Z,1025.91
2017-10-15T03:33:17.195Z,1025.89
2017-10-15T03:33:17.795Z,1025.86
2017-10-15T03:34:11.272Z,1025.93
2017-10-15T03:34:11.847Z,1025.94
2017-10-15T03:34:12.447Z,1025.91
2017-10-15T03:34:13.047Z,1025.93
2017-10-15T03:34:13.647Z,1025.89
2017-10-15T03:34:14.248Z,1025.94
2017-10-15T03:34:14.847Z,1025.93
2017-10-15T03:34:15.446Z,1025.96
2017-10-15T03:35:08.925Z,1025.90
2017-10-15T03:35:09.500Z,1025.94
2017-10-15T03:35:10.099Z,1025.94
2017-10-15T03:35:10.700Z,1025.92
2017-10-15T03:35:11.304Z,1025.92
2017-10-15T03:35:11.902Z,1025.91
2017-10-15T03:35:12.499Z,1025.91
2017-10-15T03:35:13.100Z,1025.90
2017-10-15T03:36:07.602Z,1025.89
2017-10-15T03:36:08.173Z,1025.90
2017-10-15T03:36:08.776Z,1025.87
2017-10-15T03:36:09.374Z,1025.92
2017-10-15T03:36:09.973Z,1025.89
2017-10-15T03:36:10.577Z,1025.88